createdAt,value
2023-04-25T00:00:18.821Z,22.65
2023-04-25T00:01:18.899Z,22.68
2023-04-25T00:02:19.020Z,22.70
2023-04-25T00:03:19.085Z,22.71
2023-04-25T00:04:19.475Z,22.72
2023-04-25T00:05:19.233Z,22.73
2023-04-25T00:06:19.166Z,22.73
2023-04-25T00:07:19.205Z,22.73
2023-04-25T00:08:19.257Z,22.74
2023-04-25T00:09:19.320Z,22.73
2023-04-25T00:10:19.430Z,22.73
2023-04-25T00:11:19.446Z,22.73
2023-04-25T00:12:19.523Z,22.73
2023-04-25T00:13:19.610Z,22.73
2023-04-25T00:14:19.683Z,22.73
2023-04-25T00:15:19.725Z,22.72
2023-04-25T00:16:19.852Z,22.72
2023-04-25T00:17:20.060Z,22.72
2023-04-25T00:18:19.890Z,22.73
2023-04-25T00:19:19.936Z,22.72
2023-04-25T00:20:19.978Z,22.72
2023-04-25T00:21:20.021Z,22.72
2023-04-25T00:22:20.081Z,22.72
2023-04-25T00:23:20.127Z,22.72
2023-04-25T00:24:20.239Z,22.72
2023-04-25T00:25:20.254Z,22.71
2023-04-25T00:26:20.321Z,22.71
2023-04-25T00:27:20.858Z,22.72
2023-04-25T00:28:20.417Z,22.71
2023-04-25T00:29:20.482Z,22.72
2023-04-25T00:30:20.496Z,22.71
2023-04-25T00:31:20.595Z,22.71
2023-04-25T00:32:20.606Z,22.71
2023-04-25T00:33:20.645Z,22.71
2023-04-25T00:34:20.705Z,22.72
2023-04-25T00:35:20.741Z,22.71
2023-04-25T00:36:20.794Z,22.71
2023-04-25T00:37:20.855Z,22.71
2023-04-25T00:38:20.903Z,22.70
2023-04-25T00:39:20.977Z,22.70
2023-04-25T00:40:21.020Z,22.70
2023-04-25T00:41:21.087Z,22.70
2023-04-25T00:42:21.146Z,22.71
2023-04-25T00:43:21.209Z,22.70
2023-04-25T00:44:21.266Z,22.69
2023-04-25T00:45:21.344Z,22.70
2023-04-25T00:46:21.473Z,22.69
2023-04-25T00:47:21.491Z,22.69
2023-04-25T00:48:21.512Z,22.69
2023-04-25T00:49:21.566Z,22.68
2023-04-25T00:50:21.619Z,22.67
2023-04-25T00:51:21.696Z,22.68
2023-04-25T00:52:21.754Z,22.67
2023-04-25T00:53:21.806Z,22.67
2023-04-25T00:54:21.868Z,22.67
2023-04-25T00:55:21.936Z,22.67
2023-04-25T00:56:21.988Z,22.67
2023-04-25T00:57:22.075Z,22.66
2023-04-25T00:58:22.100Z,22.66
2023-04-25T00:59:22.163Z,22.66
2023-04-25T01:00:22.205Z,22.66
2023-04-25T01:01:22.341Z,22.66
2023-04-25T01:02:22.429Z,22.67
2023-04-25T01:03:22.505Z,22.66
2023-04-25T01:04:22.579Z,22.66
2023-04-25T01:05:22.403Z,22.65
2023-04-25T01:06:22.434Z,22.65
2023-04-25T01:07:22.466Z,22.66
2023-04-25T01:08:22.526Z,22.65
2023-04-25T01:09:22.560Z,22.66
2023-04-25T01:10:22.633Z,22.65
2023-04-25T01:11:22.674Z,22.65
2023-04-25T01:12:22.715Z,22.65
2023-04-25T01:13:22.745Z,22.65
2023-04-25T01:14:22.792Z,22.64
2023-04-25T01:15:22.833Z,22.64
2023-04-25T01:16:22.888Z,22.64
2023-04-25T01:17:22.923Z,22.65
2023-04-25T01:18:22.932Z,22.64
2023-04-25T01:19:22.977Z,22.63
2023-04-25T01:20:23.001Z,22.65
2023-04-25T01:21:23.045Z,22.64
2023-04-25T01:22:23.103Z,22.64
2023-04-25T01:23:23.207Z,22.64
2023-04-25T01:24:23.168Z,22.63
2023-04-25T01:25:23.226Z,22.63
2023-04-25T01:26:23.226Z,22.63
2023-04-25T01:27:23.261Z,22.64
2023-04-25T01:28:23.292Z,22.63
2023-04-25T01:29:23.339Z,22.63
2023-04-25T01:30:23.374Z,22.63
2023-04-25T01:31:23.486Z,22.63
2023-04-25T01:32:23.495Z,22.63
2023-04-25T01:33:23.548Z,22.63
2023-04-25T01:34:23.569Z,22.63
2023-04-25T01:35:23.595Z,22.62
2023-04-25T01:36:23.611Z,22.62
2023-04-25T01:37:23.649Z,22.63
2023-04-25T01:38:23.665Z,22.63
2023-04-25T01:39:23.702Z,22.62
2023-04-25T01:40:23.753Z,22.62
2023-04-25T01:41:24.285Z,22.62
2023-04-25T01:42:23.774Z,22.62
2023-04-25T01:43:23.781Z,22.62
2023-04-25T01:44:23.806Z,22.61
2023-04-25T01:45:23.840Z,22.62
2023-04-25T01:46:23.923Z,22.61
2023-04-25T01:47:23.951Z,22.61
2023-04-25T01:48:23.946Z,22.61
2023-04-25T01:49:24.010Z,22.61
2023-04-25T01:50:24.022Z,22.60
2023-04-25T01:51:24.071Z,22.61
2023-04-25T01:52:24.088Z,22.60
2023-04-25T01:53:24.097Z,22.60
2023-04-25T01:54:24.149Z,22.60
2023-04-25T01:55:24.189Z,22.61
2023-04-25T01:56:24.230Z,22.60
2023-04-25T01:57:24.275Z,22.60
2023-04-25T01:58:24.293Z,22.60
2023-04-25T01:59:24.318Z,22.59
2023-04-25T02:00:24.329Z,22.59
2023-04-25T02:01:24.341Z,22.59
2023-04-25T02:02:24.419Z,22.60
2023-04-25T02:03:24.419Z,22.59
2023-04-25T02:04:24.519Z,22.59
2023-04-25T02:05:24.434Z,22.59
2023-04-25T02:06:24.421Z,22.59
2023-04-25T02:07:24.434Z,22.59
2023-04-25T02:08:24.428Z,22.59
2023-04-25T02:09:24.434Z,22.58
2023-04-25T02:10:24.447Z,22.59
2023-04-25T02:11:24.458Z,22.59
2023-04-25T02:12:24.505Z,22.58
2023-04-25T02:13:24.532Z,22.58
2023-04-25T02:14:24.562Z,22.58
2023-04-25T02:15:24.586Z,22.58
2023-04-25T02:16:24.748Z,22.58
2023-04-25T02:17:24.690Z,22.59
2023-04-25T02:18:24.735Z,22.58
2023-04-25T02:19:24.781Z,22.58
2023-04-25T02:20:24.817Z,22.58
2023-04-25T02:21:24.884Z,22.58
2023-04-25T02:22:24.910Z,22.57
2023-04-25T02:23:24.968Z,22.57
2023-04-25T02:24:25.016Z,22.57
2023-04-25T02:25:25.056Z,22.57
2023-04-25T02:26:25.132Z,22.57
2023-04-25T02:27:25.149Z,22.57
2023-04-25T02:28:25.192Z,22.56
2023-04-25T02:29:25.232Z,22.56
2023-04-25T02:30:25.292Z,22.56
2023-04-25T02:31:25.321Z,22.57
2023-04-25T02:32:25.393Z,22.56
2023-04-25T02:33:25.386Z,22.55
2023-04-25T02:34:25.432Z,22.56
2023-04-25T02:35:25.473Z,22.55
2023-04-25T02:36:25.506Z,22.55
2023-04-25T02:37:25.558Z,22.55
2023-04-25T02:38:25.583Z,22.54
2023-04-25T02:39:25.611Z,22.55
2023-04-25T02:40:25.659Z,22.55
2023-04-25T02:41:25.716Z,22.55
2023-04-25T02:42:25.758Z,22.55
2023-04-25T02:43:25.784Z,22.55
2023-04-25T02:44:25.831Z,22.55
2023-04-25T02:45:25.916Z,22.55
2023-04-25T02:46:38.526Z,22.54
2023-04-25T02:47:25.980Z,22.54
2023-04-25T02:48:25.886Z,22.53
2023-04-25T02:49:25.883Z,22.53
2023-04-25T02:50:25.875Z,22.53
2023-04-25T02:51:25.872Z,22.53
2023-04-25T02:52:25.870Z,22.52
2023-04-25T02:53:25.876Z,22.52
2023-04-25T02:54:25.850Z,22.51
2023-04-25T02:55:28.285Z,22.50
2023-04-25T02:56:25.845Z,22.49
2023-04-25T02:57:25.829Z,22.50
2023-04-25T02:58:25.820Z,22.50
2023-04-25T02:59:25.828Z,22.50
2023-04-25T03:00:25.834Z,22.49
2023-04-25T03:01:25.878Z,22.50
2023-04-25T03:02:25.886Z,22.49
2023-04-25T03:03:25.881Z,22.50
2023-04-25T03:04:25.814Z,22.51
2023-04-25T03:05:25.779Z,22.51
2023-04-25T03:06:25.757Z,22.50
2023-04-25T03:07:25.753Z,22.51
2023-04-25T03:08:25.751Z,22.50
2023-04-25T03:09:25.781Z,22.51
2023-04-25T03:10:25.735Z,22.51
2023-04-25T03:11:25.744Z,22.50
2023-04-25T03:12:25.721Z,22.50
2023-04-25T03:13:25.720Z,22.50
2023-04-25T03:14:25.702Z,22.50
2023-04-25T03:15:25.706Z,22.49
2023-04-25T03:16:25.718Z,22.50
2023-04-25T03:17:25.696Z,22.49
2023-04-25T03:18:25.679Z,22.49
2023-04-25T03:19:25.709Z,22.49
2023-04-25T03:20:25.663Z,22.49
2023-04-25T03:21:25.669Z,22.49
2023-04-25T03:22:25.659Z,22.49
2023-04-25T03:23:25.657Z,22.49
2023-04-25T03:24:25.665Z,22.49
2023-04-25T03:25:25.666Z,22.50
2023-04-25T03:26:25.629Z,22.49
2023-04-25T03:27:25.615Z,22.49
2023-04-25T03:28:25.619Z,22.48
2023-04-25T03:29:25.629Z,22.48
2023-04-25T03:30:25.610Z,22.48
2023-04-25T03:31:25.620Z,22.48
2023-04-25T03:32:25.611Z,22.48
2023-04-25T03:33:25.584Z,22.48
2023-04-25T03:34:25.585Z,22.48
2023-04-25T03:35:26.127Z,22.48
2023-04-25T03:36:25.575Z,22.48
2023-04-25T03:37:25.562Z,22.48
2023-04-25T03:38:25.554Z,22.47
2023-04-25T03:39:25.568Z,22.47
2023-04-25T03:40:25.541Z,22.48
2023-04-25T03:41:25.558Z,22.47
2023-04-25T03:42:25.526Z,22.47
2023-04-25T03:43:25.523Z,22.47
2023-04-25T03:44:25.521Z,22.47
2023-04-25T03:45:25.511Z,22.46
2023-04-25T03:46:25.583Z,22.47
2023-04-25T03:47:25.547Z,22.47
2023-04-25T03:48:25.496Z,22.47
2023-04-25T03:49:25.501Z,22.47
2023-04-25T03:50:25.494Z,22.47
2023-04-25T03:51:25.487Z,22.47
2023-04-25T03:52:25.483Z,22.46
2023-04-25T03:53:25.485Z,22.46
2023-04-25T03:54:25.468Z,22.46
2023-04-25T03:55:25.455Z,22.46
2023-04-25T03:56:25.449Z,22.46
2023-04-25T03:57:25.483Z,22.45
2023-04-25T03:58:25.491Z,22.46
2023-04-25T03:59:25.436Z,22.46
2023-04-25T04:00:25.457Z,22.46
2023-04-25T04:01:25.430Z,22.45
2023-04-25T04:02:25.559Z,22.44
2023-04-25T04:03:25.638Z,22.45
2023-04-25T04:04:25.619Z,22.44
2023-04-25T04:05:25.611Z,22.44
2023-04-25T04:06:25.933Z,22.44
2023-04-25T04:07:25.393Z,22.44
2023-04-25T04:08:25.362Z,22.44
2023-04-25T04:09:25.353Z,22.44
2023-04-25T04:10:25.350Z,22.44
2023-04-25T04:11:25.346Z,22.43
2023-04-25T04:12:25.343Z,22.44
2023-04-25T04:13:25.363Z,22.44
2023-04-25T04:14:25.327Z,22.44
2023-04-25T04:15:25.320Z,22.44
2023-04-25T04:16:25.394Z,22.44
2023-04-25T04:17:25.340Z,22.44
2023-04-25T04:18:25.311Z,22.43
2023-04-25T04:19:25.303Z,22.44
2023-04-25T04:20:25.286Z,22.43
2023-04-25T04:21:25.274Z,22.43
2023-04-25T04:22:25.273Z,22.43
2023-04-25T04:23:25.258Z,22.43
2023-04-25T04:24:25.252Z,22.43
2023-04-25T04:25:25.241Z,22.43
2023-04-25T04:26:25.250Z,22.43
2023-04-25T04:27:25.227Z,22.42
2023-04-25T04:28:25.227Z,22.43
2023-04-25T04:29:25.241Z,22.43
2023-04-25T04:30:25.234Z,22.43
2023-04-25T04:31:25.236Z,22.43
2023-04-25T04:32:25.202Z,22.43
2023-04-25T04:33:25.185Z,22.43
2023-04-25T04:34:25.179Z,22.43
2023-04-25T04:35:25.182Z,22.43
2023-04-25T04:36:25.163Z,22.42
2023-04-25T04:37:25.167Z,22.43
2023-04-25T04:38:25.161Z,22.43
2023-04-25T04:39:25.141Z,22.42
2023-04-25T04:40:25.136Z,22.43
2023-04-25T04:41:25.132Z,22.42
2023-04-25T04:42:25.150Z,22.42
2023-04-25T04:43:25.135Z,22.42
2023-04-25T04:44:25.116Z,22.42
2023-04-25T04:45:25.132Z,22.42
2023-04-25T04:46:25.151Z,22.42
2023-04-25T04:47:25.141Z,22.42
2023-04-25T04:48:25.088Z,22.42
2023-04-25T04:49:25.075Z,22.42
2023-04-25T04:50:25.077Z,22.42
2023-04-25T04:51:25.076Z,22.41
2023-04-25T04:52:25.065Z,22.41
2023-04-25T04:53:25.064Z,22.42
2023-04-25T04:54:25.046Z,22.41
2023-04-25T04:55:25.041Z,22.41
2023-04-25T04:56:25.032Z,22.41
2023-04-25T04:57:25.034Z,22.41
2023-04-25T04:58:25.025Z,22.41
2023-04-25T04:59:25.013Z,22.41
2023-04-25T05:00:26.161Z,22.41
2023-04-25T05:01:25.157Z,22.41
2023-04-25T05:02:25.044Z,22.40
2023-04-25T05:03:25.115Z,22.41
2023-04-25T05:04:25.024Z,22.40
2023-04-25T05:05:24.967Z,22.41
2023-04-25T05:06:24.967Z,22.41
2023-04-25T05:07:24.966Z,22.41
2023-04-25T05:08:24.945Z,22.41
2023-04-25T05:09:24.936Z,22.41
2023-04-25T05:10:24.930Z,22.41
2023-04-25T05:11:24.924Z,22.41
2023-04-25T05:12:24.928Z,22.40
2023-04-25T05:13:24.940Z,22.40
2023-04-25T05:14:24.916Z,22.41
2023-04-25T05:15:24.899Z,22.41
2023-04-25T05:16:24.916Z,22.41
2023-04-25T05:17:24.988Z,22.41
2023-04-25T05:18:24.895Z,22.41
2023-04-25T05:19:24.872Z,22.41
2023-04-25T05:20:24.866Z,22.41
2023-04-25T05:21:24.867Z,22.41
2023-04-25T05:22:24.961Z,22.42
2023-04-25T05:23:24.844Z,22.44
2023-04-25T05:24:24.833Z,22.45
2023-04-25T05:25:24.838Z,22.46
2023-04-25T05:26:24.856Z,22.47
2023-04-25T05:27:24.831Z,22.48
2023-04-25T05:28:24.813Z,22.50
2023-04-25T05:29:24.814Z,22.51
2023-04-25T05:30:24.807Z,22.51
2023-04-25T05:31:25.163Z,22.52
2023-04-25T05:32:25.125Z,22.52
2023-04-25T05:33:24.798Z,22.54
2023-04-25T05:34:24.767Z,22.53
2023-04-25T05:35:24.822Z,22.53
2023-04-25T05:36:24.788Z,22.54
2023-04-25T05:37:24.822Z,22.54
2023-04-25T05:38:24.870Z,22.55
2023-04-25T05:39:24.922Z,22.55
2023-04-25T05:40:32.306Z,22.55
2023-04-25T05:41:24.929Z,22.55
2023-04-25T05:42:25.005Z,22.56
2023-04-25T05:43:24.917Z,22.57
2023-04-25T05:44:25.496Z,22.58
2023-04-25T05:45:26.320Z,22.58
2023-04-25T05:46:25.108Z,22.59
2023-04-25T05:47:25.551Z,22.59
2023-04-25T05:48:25.177Z,22.61
2023-04-25T05:49:25.575Z,22.61
2023-04-25T05:50:25.500Z,22.62
2023-04-25T05:51:25.385Z,22.62
2023-04-25T05:52:25.486Z,22.63
2023-04-25T05:53:25.456Z,22.65
2023-04-25T05:54:32.537Z,22.65
2023-04-25T05:55:34.085Z,22.66
2023-04-25T05:56:25.476Z,22.66
2023-04-25T05:57:32.496Z,22.68
2023-04-25T05:58:25.507Z,22.67
2023-04-25T05:59:25.483Z,22.68
2023-04-25T06:00:25.548Z,22.70
2023-04-25T06:01:25.554Z,22.69
2023-04-25T06:02:25.569Z,22.70
2023-04-25T06:03:33.119Z,22.70
2023-04-25T06:04:29.145Z,22.69
2023-04-25T06:05:26.483Z,22.69
2023-04-25T06:06:32.808Z,22.70
2023-04-25T06:07:26.588Z,22.70
2023-04-25T06:08:25.578Z,22.71
2023-04-25T06:09:25.423Z,22.71
2023-04-25T06:10:26.365Z,22.72
2023-04-25T06:11:25.396Z,22.72
2023-04-25T06:12:24.451Z,22.73
2023-04-25T06:13:25.633Z,22.73
2023-04-25T06:14:26.386Z,22.75
2023-04-25T06:15:28.486Z,22.74
2023-04-25T06:16:25.631Z,22.74
2023-04-25T06:17:25.577Z,22.75
2023-04-25T06:18:25.609Z,22.76
2023-04-25T06:19:25.526Z,22.77
2023-04-25T06:20:25.655Z,22.78
2023-04-25T06:21:25.512Z,22.78
2023-04-25T06:22:25.482Z,22.78
2023-04-25T06:23:25.548Z,22.79
2023-04-25T06:24:26.048Z,22.79
2023-04-25T06:25:25.469Z,22.80
2023-04-25T06:26:26.047Z,22.81
2023-04-25T06:27:25.445Z,22.74
2023-04-25T06:28:25.453Z,22.56
2023-04-25T06:29:25.415Z,22.33
2023-04-25T06:30:25.551Z,22.11
2023-04-25T06:31:25.481Z,21.91
2023-04-25T06:32:26.440Z,21.74
2023-04-25T06:33:25.497Z,21.47
2023-04-25T06:34:25.569Z,21.20
2023-04-25T06:35:26.047Z,21.00
2023-04-25T06:36:26.105Z,20.88
2023-04-25T06:37:25.458Z,20.71
2023-04-25T06:38:25.568Z,20.60
2023-04-25T06:39:25.436Z,20.49
2023-04-25T06:40:25.433Z,20.40
2023-04-25T06:41:25.431Z,20.34
2023-04-25T06:42:25.436Z,20.31
2023-04-25T06:43:25.442Z,20.24
2023-04-25T06:44:25.581Z,20.18
2023-04-25T06:45:25.436Z,20.26
2023-04-25T06:46:25.459Z,20.40
2023-04-25T06:47:25.444Z,20.55
2023-04-25T06:48:25.588Z,20.70
2023-04-25T06:49:25.430Z,20.87
2023-04-25T06:50:25.592Z,21.01
2023-04-25T06:51:25.393Z,21.14
2023-04-25T06:52:41.374Z,21.28
2023-04-25T06:53:25.510Z,21.40
2023-04-25T06:54:25.841Z,21.51
2023-04-25T06:55:25.670Z,21.62
2023-04-25T06:56:25.795Z,21.73
2023-04-25T06:57:25.539Z,21.83
2023-04-25T06:58:25.948Z,21.92
2023-04-25T06:59:25.412Z,22.00
2023-04-25T07:00:25.719Z,22.09
2023-04-25T07:01:25.757Z,22.15
2023-04-25T07:02:25.432Z,22.22
2023-04-25T07:03:25.436Z,22.27
2023-04-25T07:04:25.421Z,22.34
2023-04-25T07:05:25.610Z,22.38
2023-04-25T07:06:25.283Z,22.42
2023-04-25T07:07:25.552Z,22.47
2023-04-25T07:08:25.310Z,22.51
2023-04-25T07:09:26.110Z,22.54
2023-04-25T07:10:25.638Z,22.58
2023-04-25T07:11:25.469Z,22.61
2023-04-25T07:12:25.262Z,22.64
2023-04-25T07:13:25.240Z,22.69
2023-04-25T07:14:25.243Z,22.71
2023-04-25T07:15:26.518Z,22.74
2023-04-25T07:16:25.265Z,22.76
2023-04-25T07:17:25.390Z,22.79
2023-04-25T07:18:25.290Z,22.82
2023-04-25T07:19:25.204Z,22.84
2023-04-25T07:20:25.425Z,22.86
2023-04-25T07:21:25.425Z,22.88
2023-04-25T07:22:25.576Z,22.91
2023-04-25T07:23:25.577Z,22.93
2023-04-25T07:24:25.499Z,22.95
2023-04-25T07:25:25.509Z,22.97
2023-04-25T07:26:26.289Z,22.99
2023-04-25T07:27:25.610Z,23.00
2023-04-25T07:28:25.732Z,23.03
2023-04-25T07:29:25.684Z,23.04
2023-04-25T07:30:26.123Z,23.06
2023-04-25T07:31:26.587Z,23.06
2023-04-25T07:32:26.241Z,23.03
2023-04-25T07:33:26.225Z,23.03
2023-04-25T07:34:26.145Z,23.04
2023-04-25T07:35:26.207Z,23.06
2023-04-25T07:36:26.086Z,23.08
2023-04-25T07:37:26.335Z,23.11
2023-04-25T07:38:26.559Z,23.12
2023-04-25T07:39:27.320Z,23.13
2023-04-25T07:40:26.815Z,23.16
2023-04-25T07:41:26.852Z,23.18
2023-04-25T07:42:27.276Z,23.21
2023-04-25T07:43:26.636Z,23.23
2023-04-25T07:44:26.672Z,23.25
2023-04-25T07:45:26.832Z,23.27
2023-04-25T07:46:26.702Z,23.28
2023-04-25T07:47:26.584Z,23.30
2023-04-25T07:48:34.265Z,23.32
2023-04-25T07:49:26.972Z,23.34
2023-04-25T07:50:26.756Z,23.37
2023-04-25T07:51:26.578Z,23.39
2023-04-25T07:52:26.570Z,23.40
2023-04-25T07:53:26.611Z,23.41
2023-04-25T07:54:26.481Z,23.43
2023-04-25T07:55:26.835Z,23.45
2023-04-25T07:56:26.880Z,23.47
2023-04-25T07:57:26.962Z,23.49
2023-04-25T07:58:26.867Z,23.50
2023-04-25T07:59:28.609Z,23.51
2023-04-25T08:00:26.355Z,23.53
2023-04-25T08:01:26.383Z,23.55
2023-04-25T08:02:26.661Z,23.56
2023-04-25T08:03:26.562Z,23.57
2023-04-25T08:04:26.681Z,23.57
2023-04-25T08:05:26.656Z,23.58
2023-04-25T08:06:26.762Z,23.59
2023-04-25T08:07:26.616Z,23.60
2023-04-25T08:08:26.638Z,23.62
2023-04-25T08:09:26.366Z,23.63
2023-04-25T08:10:26.913Z,23.64
2023-04-25T08:11:26.409Z,23.65
2023-04-25T08:12:26.363Z,23.67
2023-04-25T08:13:26.252Z,23.63
2023-04-25T08:14:26.247Z,23.22
2023-04-25T08:15:26.383Z,22.78
2023-04-25T08:16:27.196Z,22.36
2023-04-25T08:17:26.399Z,21.96
2023-04-25T08:18:27.141Z,21.58
2023-04-25T08:19:30.246Z,21.18
2023-04-25T08:20:26.371Z,20.82
2023-04-25T08:21:26.379Z,20.61
2023-04-25T08:22:26.422Z,20.54
2023-04-25T08:23:26.600Z,20.55
2023-04-25T08:24:26.255Z,20.59
2023-04-25T08:25:26.140Z,20.63
2023-04-25T08:26:26.607Z,20.69
2023-04-25T08:27:26.167Z,20.71
2023-04-25T08:28:26.626Z,20.70
2023-04-25T08:29:27.328Z,20.69
2023-04-25T08:30:26.371Z,20.68
2023-04-25T08:31:26.439Z,20.71
2023-04-25T08:32:26.691Z,20.76
2023-04-25T08:33:26.651Z,20.74
2023-04-25T08:34:26.385Z,20.70
2023-04-25T08:35:26.627Z,20.70
2023-04-25T08:36:38.505Z,20.72
2023-04-25T08:37:26.389Z,20.70
2023-04-25T08:38:26.616Z,20.71
2023-04-25T08:39:26.401Z,20.75
2023-04-25T08:40:26.383Z,20.82
2023-04-25T08:41:26.360Z,20.82
2023-04-25T08:42:26.342Z,20.79
2023-04-25T08:43:26.660Z,20.81
2023-04-25T08:44:26.115Z,20.84
2023-04-25T08:45:26.126Z,20.83
2023-04-25T08:46:26.119Z,20.81
2023-04-25T08:47:29.371Z,20.79
2023-04-25T08:48:26.129Z,20.75
2023-04-25T08:49:26.113Z,20.68
2023-04-25T08:50:26.106Z,20.63
2023-04-25T08:51:26.851Z,20.57
2023-04-25T08:52:26.072Z,20.58
2023-04-25T08:53:26.224Z,20.59
2023-04-25T08:54:35.424Z,20.59
2023-04-25T08:55:26.413Z,20.59
2023-04-25T08:56:26.414Z,20.65
2023-04-25T08:57:27.418Z,20.68
2023-04-25T08:58:26.417Z,20.64
2023-04-25T08:59:26.741Z,20.61
2023-04-25T09:00:26.418Z,20.60
2023-04-25T09:01:26.593Z,20.58
2023-04-25T09:02:26.688Z,20.57
2023-04-25T09:03:26.505Z,20.60
2023-04-25T09:04:26.303Z,20.61
2023-04-25T09:05:26.360Z,20.59
2023-04-25T09:06:26.394Z,20.59
2023-04-25T09:07:26.429Z,20.59
2023-04-25T09:08:26.514Z,20.58
2023-04-25T09:09:28.422Z,20.56
2023-04-25T09:10:27.132Z,20.52
2023-04-25T09:11:27.607Z,20.50
2023-04-25T09:12:26.524Z,20.52
2023-04-25T09:13:27.099Z,20.60
2023-04-25T09:14:26.514Z,20.64
2023-04-25T09:15:26.562Z,20.65
2023-04-25T09:16:26.700Z,20.68
2023-04-25T09:17:26.549Z,20.68
2023-04-25T09:18:29.934Z,20.67
2023-04-25T09:19:39.015Z,20.64
2023-04-25T09:20:26.483Z,20.62
2023-04-25T09:21:26.613Z,20.66
2023-04-25T09:22:26.446Z,20.72
2023-04-25T09:23:26.435Z,20.77
2023-04-25T09:24:26.468Z,20.81
2023-04-25T09:25:26.972Z,20.87
2023-04-25T09:26:26.563Z,20.93
2023-04-25T09:27:26.497Z,21.01
2023-04-25T09:28:28.267Z,21.07
2023-04-25T09:29:26.697Z,21.14
2023-04-25T09:30:26.817Z,21.22
2023-04-25T09:31:27.161Z,21.29
2023-04-25T09:32:27.291Z,21.33
2023-04-25T09:33:26.947Z,21.35
2023-04-25T09:34:27.158Z,21.39
2023-04-25T09:35:27.051Z,21.43
2023-04-25T09:36:26.413Z,21.45
2023-04-25T09:37:26.554Z,21.48
2023-04-25T09:38:26.339Z,21.50
2023-04-25T09:39:26.629Z,21.52
2023-04-25T09:40:26.620Z,21.53
2023-04-25T09:41:26.729Z,21.55
2023-04-25T09:42:26.404Z,21.60
2023-04-25T09:43:26.416Z,21.61
2023-04-25T09:44:26.424Z,21.60
2023-04-25T09:45:27.118Z,21.57
2023-04-25T09:46:26.513Z,21.53
2023-04-25T09:47:27.451Z,21.50
2023-04-25T09:48:26.448Z,21.52
2023-04-25T09:49:26.516Z,21.53
2023-04-25T09:50:27.361Z,21.57
2023-04-25T09:51:26.566Z,21.63
2023-04-25T09:52:26.668Z,21.69
2023-04-25T09:53:26.625Z,21.78
2023-04-25T09:54:26.615Z,21.86
2023-04-25T09:55:27.414Z,21.96
2023-04-25T09:56:27.620Z,22.05
2023-04-25T09:57:26.719Z,22.13
2023-04-25T09:58:26.743Z,22.21
2023-04-25T09:59:27.626Z,22.28
2023-04-25T10:00:26.862Z,22.34
2023-04-25T10:01:26.823Z,22.39
2023-04-25T10:02:27.545Z,22.45
2023-04-25T10:03:27.113Z,22.51
2023-04-25T10:04:29.366Z,22.56
2023-04-25T10:05:26.876Z,22.61
2023-04-25T10:06:27.788Z,22.65
2023-04-25T10:07:27.625Z,22.71
2023-04-25T10:08:26.771Z,22.74
2023-04-25T10:09:27.141Z,22.78
2023-04-25T10:10:26.784Z,22.81
2023-04-25T10:11:26.754Z,22.85
2023-04-25T10:12:26.787Z,22.88
2023-04-25T10:13:29.932Z,22.91
2023-04-25T10:14:27.511Z,22.93
2023-04-25T10:15:26.802Z,22.97
2023-04-25T10:16:26.966Z,23.01
2023-04-25T10:17:26.836Z,23.03
2023-04-25T10:18:27.400Z,23.06
2023-04-25T10:19:26.721Z,23.08
2023-04-25T10:20:26.685Z,23.11
2023-04-25T10:21:26.685Z,23.14
2023-04-25T10:22:27.628Z,23.17
2023-04-25T10:23:27.150Z,23.19
2023-04-25T10:24:27.135Z,23.21
2023-04-25T10:25:26.665Z,23.22
2023-04-25T10:26:26.644Z,23.25
2023-04-25T10:27:26.642Z,23.27
2023-04-25T10:28:26.634Z,23.27
2023-04-25T10:29:28.159Z,23.27
2023-04-25T10:30:26.798Z,23.26
2023-04-25T10:31:26.932Z,23.27
2023-04-25T10:32:26.807Z,23.27
2023-04-25T10:33:27.475Z,23.25
2023-04-25T10:34:26.851Z,23.25
2023-04-25T10:35:26.985Z,23.24
2023-04-25T10:36:26.928Z,23.24
2023-04-25T10:37:27.204Z,23.24
2023-04-25T10:38:26.983Z,23.23
2023-04-25T10:39:27.152Z,23.24
2023-04-25T10:40:27.056Z,23.23
2023-04-25T10:41:27.087Z,23.22
2023-04-25T10:42:27.137Z,23.22
2023-04-25T10:43:27.114Z,23.22
2023-04-25T10:44:27.651Z,23.22
2023-04-25T10:45:27.452Z,23.23
2023-04-25T10:46:27.560Z,23.22
2023-04-25T10:47:27.509Z,23.22
2023-04-25T10:48:27.508Z,23.23
2023-04-25T10:49:27.683Z,23.23
2023-04-25T10:50:27.493Z,23.23
2023-04-25T10:51:27.751Z,23.23
2023-04-25T10:52:27.478Z,23.23
2023-04-25T10:53:27.443Z,23.22
2023-04-25T10:54:27.478Z,23.24
2023-04-25T10:55:27.507Z,23.23
2023-04-25T10:56:27.568Z,23.23
2023-04-25T10:57:27.576Z,23.23
2023-04-25T10:58:27.642Z,23.24
2023-04-25T10:59:27.648Z,23.24
2023-04-25T11:00:34.226Z,23.23
2023-04-25T11:01:28.662Z,23.23
2023-04-25T11:02:27.767Z,23.24
2023-04-25T11:03:28.027Z,23.17
2023-04-25T11:04:27.897Z,23.10
2023-04-25T11:05:27.657Z,23.02
2023-04-25T11:06:27.632Z,22.95
2023-04-25T11:07:27.623Z,22.91
2023-04-25T11:08:28.148Z,22.87
2023-04-25T11:09:27.653Z,22.87
2023-04-25T11:10:27.649Z,22.89
2023-04-25T11:11:27.569Z,22.91
2023-04-25T11:12:27.585Z,22.94
2023-04-25T11:13:27.612Z,22.96
2023-04-25T11:14:28.156Z,22.99
2023-04-25T11:15:27.716Z,23.02
2023-04-25T11:16:28.623Z,23.05
2023-04-25T11:17:28.549Z,23.07
2023-04-25T11:18:27.883Z,23.09
2023-04-25T11:19:28.485Z,23.10
2023-04-25T11:20:27.918Z,23.13
2023-04-25T11:21:27.956Z,23.14
2023-04-25T11:22:28.577Z,23.16
2023-04-25T11:23:28.040Z,23.18
2023-04-25T11:24:27.985Z,23.19
2023-04-25T11:25:27.977Z,23.19
2023-04-25T11:26:28.683Z,23.21
2023-04-25T11:27:28.507Z,23.21
2023-04-25T11:28:28.650Z,23.23
2023-04-25T11:29:27.934Z,23.24
2023-04-25T11:30:28.656Z,23.24
2023-04-25T11:31:28.033Z,23.25
2023-04-25T11:32:28.526Z,23.26
2023-04-25T11:33:27.973Z,23.27
2023-04-25T11:34:28.882Z,23.27
2023-04-25T11:35:28.519Z,23.28
2023-04-25T11:36:27.974Z,23.29
2023-04-25T11:37:28.661Z,23.29
2023-04-25T11:38:29.276Z,23.29
2023-04-25T11:39:28.103Z,23.30
2023-04-25T11:40:28.551Z,23.31
2023-04-25T11:41:28.517Z,23.30
2023-04-25T11:42:28.516Z,23.31
2023-04-25T11:43:28.486Z,23.31
2023-04-25T11:44:28.495Z,23.31
2023-04-25T11:45:28.696Z,23.32
2023-04-25T11:46:28.582Z,23.32
2023-04-25T11:47:28.539Z,23.32
2023-04-25T11:48:28.490Z,23.32
2023-04-25T11:49:28.929Z,23.33
2023-04-25T11:50:28.661Z,23.33
2023-04-25T11:51:28.507Z,23.33
2023-04-25T11:52:29.494Z,23.33
2023-04-25T11:53:28.488Z,23.33
2023-04-25T11:54:29.509Z,23.34
2023-04-25T11:55:29.550Z,23.34
2023-04-25T11:56:29.177Z,23.33
2023-04-25T11:57:28.685Z,23.34
2023-04-25T11:58:28.685Z,23.33
2023-04-25T11:59:28.434Z,23.33
2023-04-25T12:00:28.466Z,23.33
2023-04-25T12:01:28.521Z,23.32
2023-04-25T12:02:28.514Z,23.32
2023-04-25T12:03:28.858Z,23.31
2023-04-25T12:04:28.696Z,23.31
2023-04-25T12:05:32.213Z,23.32
2023-04-25T12:06:28.476Z,23.30
2023-04-25T12:07:30.171Z,23.30
2023-04-25T12:08:28.677Z,23.29
2023-04-25T12:09:28.687Z,23.30
2023-04-25T12:10:28.693Z,23.30
2023-04-25T12:11:28.722Z,23.30
2023-04-25T12:12:29.680Z,23.30
2023-04-25T12:13:28.737Z,23.30
2023-04-25T12:14:28.757Z,23.30
2023-04-25T12:15:29.264Z,23.29
2023-04-25T12:16:28.830Z,23.29
2023-04-25T12:17:28.831Z,23.29
2023-04-25T12:18:29.083Z,23.29
2023-04-25T12:19:28.873Z,23.29
2023-04-25T12:20:29.183Z,23.28
2023-04-25T12:21:28.949Z,23.27
2023-04-25T12:22:29.206Z,23.27
2023-04-25T12:23:29.436Z,23.27
2023-04-25T12:24:29.322Z,23.26
2023-04-25T12:25:29.085Z,23.27
2023-04-25T12:26:29.093Z,23.26
2023-04-25T12:27:29.725Z,23.27
2023-04-25T12:28:29.155Z,23.27
2023-04-25T12:29:32.033Z,23.26
2023-04-25T12:30:29.194Z,23.26
2023-04-25T12:31:29.179Z,23.25
2023-04-25T12:32:29.206Z,23.26
2023-04-25T12:33:29.145Z,23.25
2023-04-25T12:34:29.174Z,23.25
2023-04-25T12:35:29.186Z,23.25
2023-04-25T12:36:29.514Z,23.25
2023-04-25T12:37:29.132Z,23.24
2023-04-25T12:38:29.114Z,23.24
2023-04-25T12:39:29.102Z,23.25
2023-04-25T12:40:29.190Z,23.25
2023-04-25T12:41:29.095Z,23.25
2023-04-25T12:42:29.091Z,23.24
2023-04-25T12:43:29.544Z,23.25
2023-04-25T12:44:29.070Z,23.25
2023-04-25T12:45:29.065Z,23.25
2023-04-25T12:46:29.207Z,23.25
2023-04-25T12:47:29.156Z,23.26
2023-04-25T12:48:29.041Z,23.26
2023-04-25T12:49:29.052Z,23.26
2023-04-25T12:50:29.036Z,23.27
2023-04-25T12:51:29.192Z,23.27
2023-04-25T12:52:29.028Z,23.27